OTTER BROOK LAKE : From 11/05/2018 11:00 to 11/19/2018 21:00

Date STAGE [FT] FLOW [CFS] LAKE ELEVATION [FT] PRECIPITATION INCREMENT [IN] AIR TEMPERATURE [DEGF]
11/19/2018 10:00 -- -- -- 0.00 --
11/19/2018 09:00 -- -- 23.91 0.00 36.3
11/19/2018 08:00 7.11 -- 23.94 0.00 37.1
11/19/2018 07:00 7.11 -- 23.98 0.00 35.2
11/19/2018 06:00 7.12 -- 24.00 0.00 34.9
11/19/2018 05:00 7.11 -- 24.04 0.00 33.7
11/19/2018 04:00 7.11 -- 24.07 0.00 32.8
11/19/2018 03:00 7.12 -- 24.10 0.01 32.2
11/19/2018 02:00 7.12 171.6 24.13 0.01 32.2
11/19/2018 01:00 7.12 171.6 24.16 0.02 32.1
11/19/2018 00:00 7.12 171.6 24.19 0.00 31.8
11/18/2018 23:00 7.12 171.6 24.21 0.02 31.2
11/18/2018 22:00 7.12 171.6 24.24 0.02 31.1
11/18/2018 21:00 7.12 171.6 24.26 0.00 31.6
11/18/2018 20:00 7.11 169.3 24.29 0.00 32.0
11/18/2018 19:00 7.12 171.6 24.32 0.00 32.1
11/18/2018 18:00 7.12 171.6 24.35 0.00 32.2
11/18/2018 17:00 7.12 171.6 24.37 0.00 31.8
11/18/2018 16:00 7.12 171.6 24.40 0.00 31.7
11/18/2018 15:00 7.13 174.0 24.42 0.00 32.3
11/18/2018 14:00 7.12 171.6 24.44 0.00 32.9
11/18/2018 13:00 7.12 171.6 24.47 0.00 33.6
11/18/2018 12:00 7.13 174.0 24.49 0.00 34.5
11/18/2018 11:00 7.12 171.6 24.51 0.00 36.5
11/18/2018 10:00 7.12 171.6 24.53 0.00 36.7
11/18/2018 09:00 7.12 171.6 24.56 0.00 36.7
11/18/2018 08:00 7.12 171.6 24.58 0.00 35.2
11/18/2018 07:00 7.12 171.6 24.59 0.00 36.5
11/18/2018 06:00 7.13 174.0 24.61 0.00 35.5
11/18/2018 05:00 7.12 171.6 24.63 0.00 32.5
11/18/2018 04:00 7.13 174.0 24.65 0.00 31.6
11/18/2018 03:00 7.13 174.0 24.66 0.00 30.7
11/18/2018 02:00 7.12 171.6 24.67 0.00 31.6
11/18/2018 01:00 7.13 174.0 24.69 0.00 32.6
11/18/2018 00:00 7.13 174.0 24.70 0.00 33.6
11/17/2018 23:00 7.13 174.0 24.71 0.00 35.3
11/17/2018 22:00 7.13 174.0 24.73 0.00 35.6
11/17/2018 21:00 7.13 174.0 24.73 0.00 36.4
11/17/2018 20:00 7.13 174.0 24.74 0.00 34.9
11/17/2018 19:00 7.12 171.6 24.75 0.00 35.8
11/17/2018 18:00 7.13 174.0 24.76 0.00 37.0
11/17/2018 17:00 7.13 174.0 24.76 0.00 37.3
11/17/2018 16:00 7.12 171.6 24.76 0.00 37.6
11/17/2018 15:00 -- -- 24.77 0.00 38.5
11/17/2018 14:00 7.13 174.0 24.77 0.00 36.7
11/17/2018 13:00 7.13 174.0 24.77 0.00 37.1
11/17/2018 12:00 7.13 174.0 24.77 0.00 37.0
11/17/2018 11:00 7.13 174.0 24.77 0.00 39.6
11/17/2018 10:00 7.12 171.6 24.78 0.00 42.2
11/17/2018 09:00 7.13 174.0 24.77 0.00 42.3
11/17/2018 08:00 7.13 174.0 24.77 0.00 43.1
11/17/2018 07:00 7.13 174.0 24.77 0.00 43.9
11/17/2018 06:00 7.41 245.2 24.79 0.00 41.7
11/17/2018 05:00 7.43 250.8 24.85 0.00 38.0
11/17/2018 04:00 7.41 245.2 24.92 0.00 35.4
11/17/2018 03:00 7.42 248.0 24.99 0.00 34.0
11/17/2018 02:00 7.43 250.8 25.05 0.00 34.2
11/17/2018 01:00 7.42 248.0 25.11 0.00 35.1
11/17/2018 00:00 7.41 245.2 25.17 0.00 35.6
11/16/2018 23:00 7.43 250.8 25.23 0.00 34.5
11/16/2018 22:00 7.43 250.8 25.28 0.00 35.7
11/16/2018 21:00 7.43 250.8 25.34 0.00 36.2
11/16/2018 20:00 7.43 250.8 25.39 0.00 35.4
11/16/2018 19:00 7.43 250.8 25.44 0.00 35.2
11/16/2018 18:00 7.43 250.8 25.49 0.00 36.1
11/16/2018 17:00 7.43 250.8 25.54 0.00 34.1
11/16/2018 16:00 7.43 250.8 25.59 0.00 31.8
11/16/2018 15:00 7.43 250.8 25.64 0.00 29.2
11/16/2018 14:00 7.43 250.8 25.69 0.00 30.2
11/16/2018 13:00 7.43 250.8 25.74 0.00 32.4
11/16/2018 12:00 7.44 253.5 25.77 0.00 33.8
11/16/2018 11:00 7.44 253.5 25.82 0.00 34.6
11/16/2018 10:00 7.74 344.6 25.89 0.00 33.3
11/16/2018 09:00 7.73 341.4 26.01 0.00 32.6
11/16/2018 08:00 8.03 445.8 26.11 0.01 30.2
11/16/2018 07:00 8.04 449.5 26.32 0.03 31.3
11/16/2018 06:00 8.05 453.2 26.51 0.01 31.0
11/16/2018 05:00 8.06 457.0 26.70 0.00 30.3
11/16/2018 04:00 8.05 453.2 26.87 0.03 30.2
11/16/2018 03:00 8.06 457.0 27.10 0.01 29.4
11/16/2018 02:00 8.06 457.0 27.29 0.02 29.5
11/16/2018 01:00 8.07 460.8 27.48 0.01 29.9
11/16/2018 00:00 8.08 464.5 27.66 0.03 29.4
11/15/2018 23:00 8.09 468.3 27.85 0.06 29.7
11/15/2018 22:00 8.08 464.5 28.05 0.06 29.6
11/15/2018 21:00 8.09 468.3 28.22 0.08 27.6
11/15/2018 20:00 8.10 472.1 28.40 0.13 27.0
11/15/2018 19:00 8.09 468.3 28.58 0.04 25.8
11/15/2018 18:00 8.09 468.3 28.76 0.08 26.2
11/15/2018 17:00 8.11 476.0 28.94 0.01 25.2
11/15/2018 16:00 8.11 476.0 29.13 0.00 29.1
11/15/2018 15:00 8.12 479.8 29.31 0.00 29.3
11/15/2018 14:00 -- -- 29.48 0.00 29.8
11/15/2018 13:00 -- -- 29.66 0.00 29.9
11/15/2018 12:00 -- -- 29.82 0.00 29.9
11/15/2018 11:00 -- -- 30.00 0.00 29.6
11/15/2018 10:00 -- -- 30.20 0.00 29.1
11/15/2018 09:00 8.30 551.5 30.40 0.00 28.6
11/15/2018 08:00 8.31 555.7 30.60 0.00 27.2
11/15/2018 07:00 8.32 559.8 30.80 0.00 25.6
11/15/2018 06:00 8.33 564.0 30.99 0.00 23.7
11/15/2018 05:00 8.32 559.8 31.18 0.00 21.5
11/15/2018 04:00 8.32 559.8 31.38 0.00 19.5
11/15/2018 03:00 8.35 572.3 31.57 0.00 18.7
11/15/2018 02:00 8.35 572.3 31.75 0.00 18.1
11/15/2018 01:00 8.38 585.0 31.93 0.00 18.6
11/15/2018 00:00 8.37 580.8 32.12 0.00 19.5
11/14/2018 23:00 8.36 576.5 32.29 0.00 17.9
11/14/2018 22:00 8.37 580.8 32.47 0.00 18.9
11/14/2018 21:00 8.38 585.0 32.64 0.00 18.8
11/14/2018 20:00 8.39 589.3 32.80 0.00 19.5
11/14/2018 19:00 8.39 589.3 32.97 0.00 19.9
11/14/2018 18:00 8.40 593.6 33.14 0.00 20.7
11/14/2018 17:00 8.41 597.9 33.29 0.00 21.7
11/14/2018 16:00 8.42 602.3 33.45 0.00 23.3
11/14/2018 15:00 8.39 589.3 33.60 0.00 24.6
11/14/2018 14:00 8.42 602.3 33.75 0.00 25.7
11/14/2018 13:00 8.44 611.0 33.89 0.00 27.6
11/14/2018 12:00 8.43 606.6 34.02 0.00 28.8
11/14/2018 11:00 8.43 606.6 34.17 0.00 30.2
11/14/2018 10:00 8.43 606.6 34.33 0.00 31.3
11/14/2018 09:00 8.45 615.4 34.45 0.00 30.8
11/14/2018 08:00 8.45 615.4 34.56 0.00 33.2
11/14/2018 07:00 8.45 615.4 34.72 0.00 31.8
11/14/2018 06:00 8.45 615.4 34.81 0.00 30.8
11/14/2018 05:00 8.45 615.4 34.94 0.00 29.3
11/14/2018 04:00 8.21 515.0 35.01 0.00 29.1
11/14/2018 03:00 7.78 357.8 35.04 0.00 28.7
11/14/2018 02:00 7.80 364.5 35.03 0.00 26.1
11/14/2018 01:00 7.78 357.8 35.00 0.00 25.5
11/14/2018 00:00 7.79 361.1 34.97 0.00 26.9
11/13/2018 23:00 7.80 364.5 34.95 0.00 28.4
11/13/2018 22:00 7.80 364.5 34.92 0.00 29.4
11/13/2018 21:00 7.80 364.5 34.87 0.00 30.9
11/13/2018 20:00 7.80 364.5 34.84 0.00 32.2
11/13/2018 19:00 7.79 361.1 34.80 0.00 35.3
11/13/2018 18:00 7.79 361.1 34.71 0.00 36.7
11/13/2018 17:00 7.79 361.1 34.66 0.00 38.0
11/13/2018 16:00 7.78 357.8 34.60 0.00 37.3
11/13/2018 15:00 7.79 361.1 34.53 0.00 37.8
11/13/2018 14:00 7.79 361.1 34.46 0.00 38.5
11/13/2018 13:00 7.78 357.8 34.38 0.00 39.3
11/13/2018 12:00 7.79 361.1 34.31 0.00 39.6
11/13/2018 11:00 7.80 364.5 34.23 0.00 39.9
11/13/2018 10:00 7.78 357.8 34.16 0.02 39.8
11/13/2018 09:00 7.79 361.1 34.10 0.03 40.9
11/13/2018 08:00 7.79 361.1 34.04 0.04 39.4
11/13/2018 07:00 7.78 357.8 34.01 0.06 38.8
11/13/2018 06:00 7.77 354.5 34.01 0.12 39.3
11/13/2018 05:00 7.78 357.8 34.02 0.11 38.7
11/13/2018 04:00 7.78 357.8 34.06 0.13 38.8
11/13/2018 03:00 7.78 357.8 34.11 0.13 38.1
11/13/2018 02:00 7.77 354.5 34.17 0.10 37.8
11/13/2018 01:00 7.78 357.8 34.25 0.10 37.2
11/13/2018 00:00 7.78 357.8 34.32 0.16 37.3
11/12/2018 23:00 7.79 361.1 34.42 0.08 37.6
11/12/2018 22:00 7.78 357.8 34.51 0.01 36.9
11/12/2018 21:00 7.79 361.1 34.60 0.00 36.1
11/12/2018 20:00 7.79 361.1 34.71 0.00 36.1
11/12/2018 19:00 7.79 361.1 34.80 0.00 36.2
11/12/2018 18:00 7.79 361.1 34.90 0.00 36.3
11/12/2018 17:00 7.79 361.1 34.99 0.00 35.3
11/12/2018 16:00 7.79 361.1 35.09 0.00 34.3
11/12/2018 15:00 -- -- 35.24 0.00 34.8
11/12/2018 14:00 7.80 364.5 35.29 0.00 35.9
11/12/2018 13:00 7.80 364.5 35.38 0.00 35.7
11/12/2018 12:00 7.81 367.9 35.47 0.00 41.0
11/12/2018 11:00 7.80 364.5 35.56 0.00 44.2
11/12/2018 10:00 8.35 572.3 35.69 0.00 46.0
11/12/2018 09:00 8.36 576.5 35.88 0.00 46.8
11/12/2018 08:00 8.36 576.5 36.07 0.00 43.8
11/12/2018 07:00 8.36 576.5 36.26 0.00 43.5
11/12/2018 06:00 8.36 576.5 36.45 0.00 39.8
11/12/2018 05:00 8.36 576.5 36.64 0.00 34.3
11/12/2018 04:00 8.37 580.8 36.82 0.00 28.8
11/12/2018 03:00 8.39 589.3 37.00 0.00 28.6
11/12/2018 02:00 8.38 585.0 37.19 0.00 28.3
11/12/2018 01:00 8.38 585.0 37.37 0.00 27.8
11/12/2018 00:00 8.39 589.3 37.55 0.00 26.8
11/11/2018 23:00 8.40 593.6 37.73 0.00 24.8
11/11/2018 22:00 8.40 593.6 37.90 0.00 24.6
11/11/2018 21:00 8.41 597.9 38.07 0.00 24.9
11/11/2018 20:00 8.39 589.3 38.25 0.00 25.6
11/11/2018 19:00 8.41 597.9 38.43 0.00 26.2
11/11/2018 18:00 8.41 597.9 38.59 0.00 27.1
11/11/2018 17:00 8.43 606.6 38.76 0.00 27.8
11/11/2018 16:00 8.43 606.6 38.93 0.00 28.8
11/11/2018 15:00 8.42 602.3 39.09 0.00 29.5
11/11/2018 14:00 8.41 597.9 39.26 0.00 31.4
11/11/2018 13:00 8.44 611.0 39.43 0.00 35.5
11/11/2018 12:00 8.46 619.8 39.58 0.00 38.5
11/11/2018 11:00 8.45 615.4 39.74 0.00 40.4
11/11/2018 10:00 -- -- 39.97 0.00 42.1
11/11/2018 09:00 8.47 624.2 40.05 0.00 42.7
11/11/2018 08:00 8.46 619.8 40.22 0.00 41.7
11/11/2018 07:00 8.47 624.2 40.37 0.00 41.4
11/11/2018 06:00 8.29 547.4 40.51 0.00 37.4
11/11/2018 05:00 8.30 551.5 40.62 0.00 34.2
11/11/2018 04:00 8.15 491.4 40.72 0.00 30.2
11/11/2018 03:00 -- -- 40.87 0.00 30.0
11/11/2018 02:00 8.14 487.5 40.90 0.00 30.5
11/11/2018 01:00 8.14 487.5 40.99 0.00 30.8
11/11/2018 00:00 8.15 491.4 41.08 0.00 31.7
11/10/2018 23:00 8.15 491.4 41.16 0.00 32.3
11/10/2018 22:00 8.15 491.4 41.25 0.00 29.5
11/10/2018 21:00 8.15 491.4 41.32 0.00 31.3
11/10/2018 20:00 8.15 491.4 41.40 0.00 34.5
11/10/2018 19:00 8.16 495.3 41.49 0.00 35.3
11/10/2018 18:00 8.15 491.4 41.56 0.00 35.8
11/10/2018 17:00 8.15 491.4 41.61 0.00 35.4
11/10/2018 16:00 8.14 487.5 41.69 0.00 35.0
11/10/2018 15:00 -- -- 41.78 0.00 33.8
11/10/2018 14:00 8.15 491.4 41.83 0.00 33.6
11/10/2018 13:00 8.16 495.3 41.87 0.00 34.6
11/10/2018 12:00 8.16 495.3 41.88 0.00 37.2
11/10/2018 11:00 8.17 499.2 41.97 0.00 40.1
11/10/2018 10:00 7.91 402.4 42.03 0.00 42.0
11/10/2018 09:00 7.28 210.6 42.04 0.00 42.6
11/10/2018 08:00 7.28 210.6 41.96 0.00 43.3
11/10/2018 07:00 7.27 208.1 41.86 0.00 44.9
11/10/2018 06:00 7.28 210.6 41.78 0.00 41.7
11/10/2018 05:00 7.28 210.6 41.71 0.00 41.9
11/10/2018 04:00 7.28 210.6 41.63 0.03 41.9
11/10/2018 03:00 7.27 208.1 41.55 0.03 41.1
11/10/2018 02:00 7.28 210.6 41.48 0.05 41.9
11/10/2018 01:00 7.27 208.1 41.42 0.01 42.4
11/10/2018 00:00 7.27 208.1 41.35 0.04 42.7
11/09/2018 23:00 7.27 208.1 41.27 0.01 42.7
11/09/2018 22:00 7.27 208.1 41.24 0.01 42.4
11/09/2018 21:00 7.28 210.6 41.19 0.03 42.0
11/09/2018 20:00 7.28 210.6 41.14 0.08 41.6
11/09/2018 19:00 7.27 208.1 41.12 0.08 41.2
11/09/2018 18:00 7.27 208.1 41.08 0.10 40.7
11/09/2018 17:00 7.27 208.1 41.07 0.09 40.5
11/09/2018 16:00 7.27 208.1 41.07 0.10 38.9
11/09/2018 15:00 7.26 205.5 41.06 0.07 40.0
11/09/2018 14:00 7.26 205.5 41.03 0.01 41.8
11/09/2018 13:00 7.26 205.5 41.03 0.00 43.7
11/09/2018 12:00 7.26 205.5 41.03 0.00 43.8
11/09/2018 11:00 7.83 374.6 41.04 0.00 43.8
11/09/2018 10:00 7.85 381.5 41.12 0.00 44.2
11/09/2018 09:00 7.85 381.5 41.19 0.00 44.3
11/09/2018 08:00 7.85 381.5 41.27 0.00 44.1
11/09/2018 07:00 7.84 378.1 41.35 0.00 43.1
11/09/2018 06:00 8.42 602.3 41.43 0.00 40.1
11/09/2018 05:00 8.42 602.3 41.60 0.00 35.0
11/09/2018 04:00 8.42 602.3 41.76 0.00 31.6
11/09/2018 03:00 8.43 606.6 41.92 0.00 30.3
11/09/2018 02:00 8.43 606.6 42.08 0.00 28.8
11/09/2018 01:00 8.44 611.0 42.24 0.00 30.0
11/09/2018 00:00 8.44 611.0 42.41 0.00 30.6
11/08/2018 23:00 8.45 615.4 42.57 0.00 30.6
11/08/2018 22:00 8.45 615.4 42.72 0.00 32.0
11/08/2018 21:00 8.45 615.4 42.87 0.00 32.3
11/08/2018 20:00 8.46 619.8 43.03 0.00 32.7
11/08/2018 19:00 8.46 619.8 43.18 0.00 35.7
11/08/2018 18:00 8.46 619.8 43.34 0.00 35.6
11/08/2018 17:00 8.46 619.8 43.49 0.00 38.5
11/08/2018 16:00 8.47 624.2 43.63 0.00 40.8
11/08/2018 15:00 8.48 628.6 43.78 0.00 41.5
11/08/2018 14:00 8.47 624.2 43.92 0.00 43.1
11/08/2018 13:00 8.48 628.6 44.06 0.00 44.7
11/08/2018 12:00 8.48 628.6 44.21 0.00 46.6
11/08/2018 11:00 8.49 633.0 44.35 0.00 47.5
11/08/2018 10:00 8.49 633.0 44.49 0.00 47.8
11/08/2018 09:00 8.49 633.0 44.63 0.00 47.8
11/08/2018 08:00 8.48 628.6 44.75 0.00 51.0
11/08/2018 07:00 8.44 611.0 44.89 0.00 48.1
11/08/2018 06:00 8.41 597.9 45.00 0.00 47.3
11/08/2018 05:00 8.41 597.9 45.13 0.00 44.4
11/08/2018 04:00 8.43 606.6 45.24 0.00 36.0
11/08/2018 03:00 8.30 551.5 45.35 0.00 35.4
11/08/2018 02:00 8.30 551.5 45.44 0.00 37.0
11/08/2018 01:00 8.30 551.5 45.53 0.00 36.6
11/08/2018 00:00 8.31 555.7 45.62 0.00 35.2
11/07/2018 23:00 8.30 551.5 45.70 0.00 36.8
11/07/2018 22:00 8.31 555.7 45.78 0.00 37.7
11/07/2018 21:00 8.30 551.5 45.85 0.00 41.2
11/07/2018 20:00 8.30 551.5 45.92 0.00 43.6
11/07/2018 19:00 8.32 559.8 45.99 0.00 44.6
11/07/2018 18:00 8.32 559.8 46.05 0.00 40.3
11/07/2018 17:00 8.31 555.7 46.12 0.00 39.5
11/07/2018 16:00 8.32 559.8 46.17 0.00 40.6
11/07/2018 15:00 8.32 559.8 46.23 0.00 42.3
11/07/2018 14:00 8.32 559.8 46.27 0.00 43.6
11/07/2018 13:00 8.32 559.8 46.32 0.00 47.3
11/07/2018 12:00 8.33 564.0 46.36 0.00 53.3
11/07/2018 11:00 8.05 453.2 46.38 0.00 57.1
11/07/2018 10:00 8.05 453.2 46.38 0.00 59.4
11/07/2018 09:00 8.06 457.0 46.36 0.00 59.6
11/07/2018 08:00 8.05 453.2 46.33 0.00 58.0
11/07/2018 07:00 8.04 449.5 46.31 0.00 58.1
11/07/2018 06:00 8.04 449.5 46.27 0.00 56.4
11/07/2018 05:00 8.04 449.5 46.24 0.00 50.2
11/07/2018 04:00 8.04 449.5 46.20 0.00 43.2
11/07/2018 03:00 -- -- 46.02 0.00 43.1
11/07/2018 02:00 7.45 256.4 45.95 0.00 43.7
11/07/2018 01:00 7.45 256.4 45.81 0.00 45.8
11/07/2018 00:00 7.45 256.4 45.67 0.00 47.2
11/06/2018 23:00 7.45 256.4 45.51 0.01 50.1
11/06/2018 22:00 7.45 256.4 45.36 0.00 51.1
11/06/2018 21:00 7.45 256.4 45.19 0.00 51.4
11/06/2018 20:00 7.44 253.5 45.03 0.00 51.7
11/06/2018 19:00 7.44 253.5 44.86 0.00 51.1
11/06/2018 18:00 7.45 256.4 44.70 0.00 50.7
11/06/2018 17:00 7.44 253.5 44.53 0.00 50.7
11/06/2018 16:00 7.44 253.5 44.37 0.00 49.6
11/06/2018 15:00 7.43 250.8 44.19 0.01 50.4
11/06/2018 14:00 8.04 449.5 44.10 0.05 49.2
11/06/2018 13:00 8.04 449.5 44.04 0.09 49.0
11/06/2018 12:00 8.04 449.5 44.01 0.03 49.0
11/06/2018 11:00 8.03 445.8 44.01 0.06 49.1
11/06/2018 10:00 8.06 457.0 44.03 0.22 49.4
11/06/2018 09:00 8.05 453.2 44.07 0.22 49.2
11/06/2018 08:00 8.05 453.2 44.11 0.04 49.3
11/06/2018 07:00 8.06 457.0 44.17 0.01 49.5
11/06/2018 06:00 8.05 453.2 44.23 0.00 49.9
11/06/2018 05:00 8.05 453.2 44.30 0.00 49.2
11/06/2018 04:00 7.55 285.3 44.34 0.00 45.9
11/06/2018 03:00 7.54 282.4 44.33 0.00 44.6
11/06/2018 02:00 7.55 285.3 44.31 0.00 44.3
11/06/2018 01:00 7.55 285.3 44.29 0.00 44.0
11/06/2018 00:00 7.54 282.4 44.27 0.00 43.8
11/05/2018 23:00 7.55 285.3 44.25 0.00 43.2
11/05/2018 22:00 7.54 282.4 44.24 0.01 42.9
11/05/2018 21:00 7.54 282.4 44.21 0.02 42.6
11/05/2018 20:00 7.55 285.3 44.19 0.03 42.3
11/05/2018 19:00 7.54 282.4 44.18 0.03 41.8
11/05/2018 18:00 7.54 282.4 44.16 0.05 41.5
11/05/2018 17:00 7.54 282.4 44.15 0.08 41.9
11/05/2018 16:00 7.54 282.4 44.12 0.04 43.3
11/05/2018 15:00 -- -- -- -- --
11/05/2018 14:00 -- -- -- -- --
11/05/2018 13:00 -- -- -- -- --
11/05/2018 12:00 -- -- -- -- --
11/05/2018 11:00 -- -- -- -- --